sensor_id;sensor_type;location;lat;lon;timestamp;temperature;humidity
5459;DHT22;2752;49.992;8.422;2023-06-14T00:01:12;18.70;1.00
5459;DHT22;2752;49.992;8.422;2023-06-14T00:03:39;18.70;1.00
5459;DHT22;2752;49.992;8.422;2023-06-14T00:06:06;18.60;1.00
5459;DHT22;2752;49.992;8.422;2023-06-14T00:08:32;18.60;1.00
5459;DHT22;2752;49.992;8.422;2023-06-14T00:11:00;18.60;1.00
5459;DHT22;2752;49.992;8.422;2023-06-14T00:13:27;18.70;1.00
5459;DHT22;2752;49.992;8.422;2023-06-14T00:15:54;18.70;1.00
5459;DHT22;2752;49.992;8.422;2023-06-14T00:18:21;18.70;1.00
5459;DHT22;2752;49.992;8.422;2023-06-14T00:20:50;18.70;1.00
5459;DHT22;2752;49.992;8.422;2023-06-14T00:23:17;18.70;1.00
5459;DHT22;2752;49.992;8.422;2023-06-14T00:25:43;18.70;1.00
5459;DHT22;2752;49.992;8.422;2023-06-14T00:28:12;18.70;1.00
5459;DHT22;2752;49.992;8.422;2023-06-14T00:30:38;18.80;1.00
5459;DHT22;2752;49.992;8.422;2023-06-14T00:33:05;18.80;1.00
5459;DHT22;2752;49.992;8.422;2023-06-14T00:35:32;18.90;1.00
5459;DHT22;2752;49.992;8.422;2023-06-14T00:37:58;18.90;1.00
5459;DHT22;2752;49.992;8.422;2023-06-14T00:40:25;18.90;1.00
5459;DHT22;2752;49.992;8.422;2023-06-14T00:42:52;18.90;1.00
5459;DHT22;2752;49.992;8.422;2023-06-14T00:45:20;18.90;1.00
5459;DHT22;2752;49.992;8.422;2023-06-14T00:47:48;18.80;1.00
5459;DHT22;2752;49.992;8.422;2023-06-14T00:50:16;18.80;1.00
5459;DHT22;2752;49.992;8.422;2023-06-14T00:52:43;18.90;1.00
5459;DHT22;2752;49.992;8.422;2023-06-14T00:55:10;18.80;1.00
5459;DHT22;2752;49.992;8.422;2023-06-14T00:57:37;18.80;1.00
5459;DHT22;2752;49.992;8.422;2023-06-14T01:00:06;18.80;1.00
5459;DHT22;2752;49.992;8.422;2023-06-14T01:02:36;18.90;1.00
5459;DHT22;2752;49.992;8.422;2023-06-14T01:05:03;18.80;1.00
5459;DHT22;2752;49.992;8.422;2023-06-14T01:07:38;18.80;1.00
5459;DHT22;2752;49.992;8.422;2023-06-14T01:10:20;18.70;1.00
5459;DHT22;2752;49.992;8.422;2023-06-14T01:12:52;18.70;1.00
5459;DHT22;2752;49.992;8.422;2023-06-14T01:15:23;18.60;1.00
5459;DHT22;2752;49.992;8.422;2023-06-14T01:17:51;18.60;1.00
5459;DHT22;2752;49.992;8.422;2023-06-14T01:20:22;18.70;1.00
5459;DHT22;2752;49.992;8.422;2023-06-14T01:22:52;18.70;1.00
5459;DHT22;2752;49.992;8.422;2023-06-14T01:25:19;18.60;1.00
5459;DHT22;2752;49.992;8.422;2023-06-14T01:27:49;18.60;1.00
5459;DHT22;2752;49.992;8.422;2023-06-14T01:30:17;18.60;1.00
5459;DHT22;2752;49.992;8.422;2023-06-14T01:32:44;18.40;1.00
5459;DHT22;2752;49.992;8.422;2023-06-14T01:35:11;18.40;1.00
5459;DHT22;2752;49.992;8.422;2023-06-14T01:37:39;18.40;1.00
5459;DHT22;2752;49.992;8.422;2023-06-14T01:40:10;18.40;1.00
5459;DHT22;2752;49.992;8.422;2023-06-14T01:42:38;18.30;1.00
5459;DHT22;2752;49.992;8.422;2023-06-14T01:45:06;18.30;1.00
5459;DHT22;2752;49.992;8.422;2023-06-14T01:47:33;18.30;1.00
5459;DHT22;2752;49.992;8.422;2023-06-14T01:50:01;18.20;1.00
5459;DHT22;2752;49.992;8.422;2023-06-14T01:52:28;18.00;1.00
5459;DHT22;2752;49.992;8.422;2023-06-14T01:54:54;18.00;1.00
5459;DHT22;2752;49.992;8.422;2023-06-14T01:57:23;18.00;1.00
5459;DHT22;2752;49.992;8.422;2023-06-14T01:59:50;17.90;1.00
5459;DHT22;2752;49.992;8.422;2023-06-14T02:02:17;17.90;1.00
5459;DHT22;2752;49.992;8.422;2023-06-14T02:04:43;17.90;1.00
5459;DHT22;2752;49.992;8.422;2023-06-14T02:07:12;17.80;1.00
5459;DHT22;2752;49.992;8.422;2023-06-14T02:09:40;17.80;1.00
5459;DHT22;2752;49.992;8.422;2023-06-14T02:12:07;17.70;1.00
5459;DHT22;2752;49.992;8.422;2023-06-14T02:14:35;17.60;1.00
5459;DHT22;2752;49.992;8.422;2023-06-14T02:17:04;17.60;1.00
5459;DHT22;2752;49.992;8.422;2023-06-14T02:19:32;17.50;1.00
5459;DHT22;2752;49.992;8.422;2023-06-14T02:21:58;17.50;1.00
5459;DHT22;2752;49.992;8.422;2023-06-14T02:24:25;17.40;1.00
5459;DHT22;2752;49.992;8.422;2023-06-14T02:26:52;17.40;1.00
5459;DHT22;2752;49.992;8.422;2023-06-14T02:29:18;17.40;1.00
5459;DHT22;2752;49.992;8.422;2023-06-14T02:31:47;17.40;1.00
5459;DHT22;2752;49.992;8.422;2023-06-14T02:34:13;17.10;1.00
5459;DHT22;2752;49.992;8.422;2023-06-14T02:36:42;17.20;1.00
5459;DHT22;2752;49.992;8.422;2023-06-14T02:39:08;17.20;1.00
5459;DHT22;2752;49.992;8.422;2023-06-14T02:41:35;17.20;1.00
5459;DHT22;2752;49.992;8.422;2023-06-14T02:44:02;17.10;1.00
5459;DHT22;2752;49.992;8.422;2023-06-14T02:46:29;17.10;1.00
5459;DHT22;2752;49.992;8.422;2023-06-14T02:48:57;17.20;1.00
5459;DHT22;2752;49.992;8.422;2023-06-14T02:51:23;17.00;1.00
5459;DHT22;2752;49.992;8.422;2023-06-14T02:53:50;17.10;1.00
5459;DHT22;2752;49.992;8.422;2023-06-14T02:56:17;17.00;1.00
5459;DHT22;2752;49.992;8.422;2023-06-14T02:58:44;16.90;1.00
5459;DHT22;2752;49.992;8.422;2023-06-14T03:01:11;16.90;1.00
5459;DHT22;2752;49.992;8.422;2023-06-14T03:03:38;16.90;1.00
5459;DHT22;2752;49.992;8.422;2023-06-14T03:06:06;16.90;1.00
5459;DHT22;2752;49.992;8.422;2023-06-14T03:08:33;16.90;1.00
5459;DHT22;2752;49.992;8.422;2023-06-14T03:11:04;16.90;1.00
5459;DHT22;2752;49.992;8.422;2023-06-14T03:13:31;16.90;1.00
5459;DHT22;2752;49.992;8.422;2023-06-14T03:15:59;16.90;1.00
5459;DHT22;2752;49.992;8.422;2023-06-14T03:18:28;16.90;1.00
5459;DHT22;2752;49.992;8.422;2023-06-14T03:20:55;17.00;1.00
5459;DHT22;2752;49.992;8.422;2023-06-14T03:23:24;17.00;1.00
5459;DHT22;2752;49.992;8.422;2023-06-14T03:25:51;17.00;1.00
5459;DHT22;2752;49.992;8.422;2023-06-14T03:28:18;16.90;1.00
5459;DHT22;2752;49.992;8.422;2023-06-14T03:30:45;17.00;1.00
5459;DHT22;2752;49.992;8.422;2023-06-14T03:33:12;16.90;1.00
5459;DHT22;2752;49.992;8.422;2023-06-14T03:35:39;16.90;1.00
5459;DHT22;2752;49.992;8.422;2023-06-14T03:38:05;16.90;1.00
5459;DHT22;2752;49.992;8.422;2023-06-14T03:40:33;17.00;1.00
5459;DHT22;2752;49.992;8.422;2023-06-14T03:43:00;17.00;1.00
5459;DHT22;2752;49.992;8.422;2023-06-14T03:45:27;17.00;1.00
5459;DHT22;2752;49.992;8.422;2023-06-14T03:47:53;17.20;1.00
5459;DHT22;2752;49.992;8.422;2023-06-14T03:50:22;17.40;1.00
5459;DHT22;2752;49.992;8.422;2023-06-14T03:52:48;17.60;1.00
5459;DHT22;2752;49.992;8.422;2023-06-14T03:55:15;17.80;1.00
5459;DHT22;2752;49.992;8.422;2023-06-14T03:57:43;17.90;1.00
5459;DHT22;2752;49.992;8.422;2023-06-14T04:00:11;18.00;1.00
5459;DHT22;2752;49.992;8.422;2023-06-14T04:02:38;18.10;1.00
5459;DHT22;2752;49.992;8.422;2023-06-14T04:05:05;18.10;1.00
5459;DHT22;2752;49.992;8.422;2023-06-14T04:07:34;18.20;1.00
5459;DHT22;2752;49.992;8.422;2023-06-14T04:10:06;18.30;1.00
5459;DHT22;2752;49.992;8.422;2023-06-14T04:12:33;18.50;1.00
5459;DHT22;2752;49.992;8.422;2023-06-14T04:15:01;18.50;1.00
5459;DHT22;2752;49.992;8.422;2023-06-14T04:17:28;18.70;1.00
5459;DHT22;2752;49.992;8.422;2023-06-14T04:19:55;18.70;1.00
5459;DHT22;2752;49.992;8.422;2023-06-14T04:22:24;18.70;1.00
5459;DHT22;2752;49.992;8.422;2023-06-14T04:24:54;18.60;1.00
5459;DHT22;2752;49.992;8.422;2023-06-14T04:27:21;18.40;1.00
5459;DHT22;2752;49.992;8.422;2023-06-14T04:29:51;18.30;1.00
5459;DHT22;2752;49.992;8.422;2023-06-14T04:32:23;18.20;1.00
5459;DHT22;2752;49.992;8.422;2023-06-14T04:34:50;18.20;1.00
5459;DHT22;2752;49.992;8.422;2023-06-14T04:37:19;18.10;1.00
5459;DHT22;2752;49.992;8.422;2023-06-14T04:39:46;18.10;1.00
5459;DHT22;2752;49.992;8.422;2023-06-14T04:42:13;18.10;1.00
5459;DHT22;2752;49.992;8.422;2023-06-14T04:44:41;18.10;1.00
5459;DHT22;2752;49.992;8.422;2023-06-14T04:47:09;18.10;1.00
5459;DHT22;2752;49.992;8.422;2023-06-14T04:49:38;18.20;1.00
5459;DHT22;2752;49.992;8.422;2023-06-14T04:52:06;18.20;1.00
5459;DHT22;2752;49.992;8.422;2023-06-14T04:54:35;18.30;1.00
5459;DHT22;2752;49.992;8.422;2023-06-14T04:57:04;18.20;1.00
5459;DHT22;2752;49.992;8.422;2023-06-14T04:59:31;18.30;1.00
5459;DHT22;2752;49.992;8.422;2023-06-14T05:01:59;18.30;1.00
5459;DHT22;2752;49.992;8.422;2023-06-14T05:04:26;18.30;1.00
5459;DHT22;2752;49.992;8.422;2023-06-14T05:06:54;18.40;1.00
5459;DHT22;2752;49.992;8.422;2023-06-14T05:09:22;18.40;1.00
5459;DHT22;2752;49.992;8.422;2023-06-14T05:11:48;18.50;1.00
5459;DHT22;2752;49.992;8.422;2023-06-14T05:14:16;18.40;1.00
5459;DHT22;2752;49.992;8.422;2023-06-14T05:16:42;18.40;1.00
5459;DHT22;2752;49.992;8.422;2023-06-14T05:19:09;18.40;1.00
5459;DHT22;2752;49.992;8.422;2023-06-14T05:21:36;18.30;1.00
5459;DHT22;2752;49.992;8.422;2023-06-14T05:24:05;18.40;1.00
5459;DHT22;2752;49.992;8.422;2023-06-14T05:26:31;18.50;1.00
5459;DHT22;2752;49.992;8.422;2023-06-14T05:28:59;18.60;1.00
5459;DHT22;2752;49.992;8.422;2023-06-14T05:31:27;18.60;1.00
5459;DHT22;2752;49.992;8.422;2023-06-14T05:33:54;18.60;1.00
5459;DHT22;2752;49.992;8.422;2023-06-14T05:36:21;18.70;1.00
5459;DHT22;2752;49.992;8.422;2023-06-14T05:38:47;18.70;1.00
5459;DHT22;2752;49.992;8.422;2023-06-14T05:41:15;18.80;1.00
5459;DHT22;2752;49.992;8.422;2023-06-14T05:43:42;18.80;1.00
5459;DHT22;2752;49.992;8.422;2023-06-14T05:46:09;18.80;1.00
5459;DHT22;2752;49.992;8.422;2023-06-14T05:48:36;18.90;1.00
5459;DHT22;2752;49.992;8.422;2023-06-14T05:51:03;19.00;1.00
5459;DHT22;2752;49.992;8.422;2023-06-14T05:53:29;19.00;1.00
5459;DHT22;2752;49.992;8.422;2023-06-14T05:55:56;19.00;1.00
5459;DHT22;2752;49.992;8.422;2023-06-14T05:58:24;19.00;1.00
5459;DHT22;2752;49.992;8.422;2023-06-14T06:00:51;19.10;1.00
5459;DHT22;2752;49.992;8.422;2023-06-14T06:03:19;19.10;1.00
5459;DHT22;2752;49.992;8.422;2023-06-14T06:05:46;19.10;1.00
5459;DHT22;2752;49.992;8.422;2023-06-14T06:08:13;19.10;1.00
5459;DHT22;2752;49.992;8.422;2023-06-14T06:10:39;19.10;1.00
5459;DHT22;2752;49.992;8.422;2023-06-14T06:13:06;19.20;1.00
5459;DHT22;2752;49.992;8.422;2023-06-14T06:15:35;19.20;1.00
5459;DHT22;2752;49.992;8.422;2023-06-14T06:18:02;19.20;1.00
5459;DHT22;2752;49.992;8.422;2023-06-14T06:20:29;19.30;1.00
5459;DHT22;2752;49.992;8.422;2023-06-14T06:22:57;19.50;1.00
5459;DHT22;2752;49.992;8.422;2023-06-14T06:25:24;19.40;1.00
5459;DHT22;2752;49.992;8.422;2023-06-14T06:27:51;19.50;1.00
5459;DHT22;2752;49.992;8.422;2023-06-14T06:30:18;19.40;1.00
5459;DHT22;2752;49.992;8.422;2023-06-14T06:32:46;19.40;1.00
5459;DHT22;2752;49.992;8.422;2023-06-14T06:35:13;19.50;1.00
5459;DHT22;2752;49.992;8.422;2023-06-14T06:37:41;19.40;1.00
5459;DHT22;2752;49.992;8.422;2023-06-14T06:40:09;19.50;1.00
5459;DHT22;2752;49.992;8.422;2023-06-14T06:42:36;19.60;1.00
5459;DHT22;2752;49.992;8.422;2023-06-14T06:45:03;20.00;1.00
5459;DHT22;2752;49.992;8.422;2023-06-14T06:47:30;19.60;1.00
5459;DHT22;2752;49.992;8.422;2023-06-14T06:49:58;19.50;1.00
5459;DHT22;2752;49.992;8.422;2023-06-14T06:52:24;19.60;1.00
5459;DHT22;2752;49.992;8.422;2023-06-14T06:54:51;19.70;1.00
5459;DHT22;2752;49.992;8.422;2023-06-14T06:57:20;19.60;1.00
5459;DHT22;2752;49.992;8.422;2023-06-14T06:59:48;19.50;1.00
5459;DHT22;2752;49.992;8.422;2023-06-14T07:02:14;19.50;1.00
5459;DHT22;2752;49.992;8.422;2023-06-14T07:04:41;19.60;1.00
5459;DHT22;2752;49.992;8.422;2023-06-14T07:07:09;19.90;1.00
5459;DHT22;2752;49.992;8.422;2023-06-14T07:09:36;19.90;1.00
5459;DHT22;2752;49.992;8.422;2023-06-14T07:12:03;20.00;1.00
5459;DHT22;2752;49.992;8.422;2023-06-14T07:14:30;20.20;1.00
5459;DHT22;2752;49.992;8.422;2023-06-14T07:16:56;20.30;1.00
5459;DHT22;2752;49.992;8.422;2023-06-14T07:19:23;20.30;1.00
5459;DHT22;2752;49.992;8.422;2023-06-14T07:21:50;20.40;1.00
5459;DHT22;2752;49.992;8.422;2023-06-14T07:24:19;20.30;1.00
5459;DHT22;2752;49.992;8.422;2023-06-14T07:26:46;20.30;1.00
5459;DHT22;2752;49.992;8.422;2023-06-14T07:29:14;20.40;1.00
5459;DHT22;2752;49.992;8.422;2023-06-14T07:31:41;20.40;1.00
5459;DHT22;2752;49.992;8.422;2023-06-14T07:34:08;20.40;1.00
5459;DHT22;2752;49.992;8.422;2023-06-14T07:36:35;20.50;1.00
5459;DHT22;2752;49.992;8.422;2023-06-14T07:39:02;20.50;1.00
5459;DHT22;2752;49.992;8.422;2023-06-14T07:41:31;20.60;1.00
5459;DHT22;2752;49.992;8.422;2023-06-14T07:43:58;20.70;1.00
5459;DHT22;2752;49.992;8.422;2023-06-14T07:46:24;20.70;1.00
5459;DHT22;2752;49.992;8.422;2023-06-14T07:48:51;20.80;1.00
5459;DHT22;2752;49.992;8.422;2023-06-14T07:51:18;20.90;1.00
5459;DHT22;2752;49.992;8.422;2023-06-14T07:53:44;21.00;1.00
5459;DHT22;2752;49.992;8.422;2023-06-14T07:56:11;21.10;1.00
5459;DHT22;2752;49.992;8.422;2023-06-14T07:58:39;21.10;1.00
5459;DHT22;2752;49.992;8.422;2023-06-14T08:01:06;21.10;1.00
5459;DHT22;2752;49.992;8.422;2023-06-14T08:03:33;21.30;1.00
5459;DHT22;2752;49.992;8.422;2023-06-14T08:06:01;21.60;1.00
5459;DHT22;2752;49.992;8.422;2023-06-14T08:08:30;21.50;1.00
5459;DHT22;2752;49.992;8.422;2023-06-14T08:10:57;21.30;1.00
5459;DHT22;2752;49.992;8.422;2023-06-14T08:13:24;21.40;1.00
5459;DHT22;2752;49.992;8.422;2023-06-14T08:15:52;21.50;1.00
5459;DHT22;2752;49.992;8.422;2023-06-14T08:18:19;21.60;1.00
5459;DHT22;2752;49.992;8.422;2023-06-14T08:20:45;21.70;1.00
5459;DHT22;2752;49.992;8.422;2023-06-14T08:23:14;21.70;1.00
5459;DHT22;2752;49.992;8.422;2023-06-14T08:25:41;21.70;1.00
5459;DHT22;2752;49.992;8.422;2023-06-14T08:28:08;21.70;1.00
5459;DHT22;2752;49.992;8.422;2023-06-14T08:30:34;21.80;1.00
5459;DHT22;2752;49.992;8.422;2023-06-14T08:33:02;21.80;1.00
5459;DHT22;2752;49.992;8.422;2023-06-14T08:35:29;21.60;1.00
5459;DHT22;2752;49.992;8.422;2023-06-14T08:37:56;21.60;1.00
5459;DHT22;2752;49.992;8.422;2023-06-14T08:40:23;21.40;1.00
5459;DHT22;2752;49.992;8.422;2023-06-14T08:42:51;21.30;1.00
5459;DHT22;2752;49.992;8.422;2023-06-14T08:45:19;21.50;1.00
5459;DHT22;2752;49.992;8.422;2023-06-14T08:47:47;21.60;1.00
5459;DHT22;2752;49.992;8.422;2023-06-14T08:50:19;21.60;1.00
5459;DHT22;2752;49.992;8.422;2023-06-14T08:52:48;21.70;1.00
5459;DHT22;2752;49.992;8.422;2023-06-14T08:55:18;21.70;1.00
5459;DHT22;2752;49.992;8.422;2023-06-14T08:57:46;21.70;1.00
5459;DHT22;2752;49.992;8.422;2023-06-14T09:00:15;21.80;1.00
5459;DHT22;2752;49.992;8.422;2023-06-14T09:02:42;21.70;1.00
5459;DHT22;2752;49.992;8.422;2023-06-14T09:05:09;21.70;1.00
5459;DHT22;2752;49.992;8.422;2023-06-14T09:07:40;21.70;1.00
5459;DHT22;2752;49.992;8.422;2023-06-14T09:10:08;21.90;1.00
5459;DHT22;2752;49.992;8.422;2023-06-14T09:12:36;21.80;1.00
5459;DHT22;2752;49.992;8.422;2023-06-14T09:15:03;21.80;1.00
5459;DHT22;2752;49.992;8.422;2023-06-14T09:17:33;21.90;1.00
5459;DHT22;2752;49.992;8.422;2023-06-14T09:20:01;22.00;1.00
5459;DHT22;2752;49.992;8.422;2023-06-14T09:22:31;22.00;1.00
5459;DHT22;2752;49.992;8.422;2023-06-14T09:24:59;22.10;1.00
5459;DHT22;2752;49.992;8.422;2023-06-14T09:27:26;22.10;1.00
5459;DHT22;2752;49.992;8.422;2023-06-14T09:29:53;22.40;1.00
5459;DHT22;2752;49.992;8.422;2023-06-14T09:32:20;22.40;1.00
5459;DHT22;2752;49.992;8.422;2023-06-14T09:34:48;22.40;1.00
5459;DHT22;2752;49.992;8.422;2023-06-14T09:37:27;22.40;1.00
5459;DHT22;2752;49.992;8.422;2023-06-14T09:39:54;22.40;1.00
5459;DHT22;2752;49.992;8.422;2023-06-14T09:42:22;22.20;1.00
5459;DHT22;2752;49.992;8.422;2023-06-14T09:44:51;22.40;1.00
5459;DHT22;2752;49.992;8.422;2023-06-14T09:47:18;22.30;1.00
5459;DHT22;2752;49.992;8.422;2023-06-14T09:49:45;22.00;1.00
5459;DHT22;2752;49.992;8.422;2023-06-14T09:52:15;22.50;1.00
5459;DHT22;2752;49.992;8.422;2023-06-14T09:54:43;22.60;1.00
5459;DHT22;2752;49.992;8.422;2023-06-14T09:57:12;22.70;1.00
5459;DHT22;2752;49.992;8.422;2023-06-14T09:59:42;22.30;1.00
5459;DHT22;2752;49.992;8.422;2023-06-14T10:02:12;22.20;1.00
5459;DHT22;2752;49.992;8.422;2023-06-14T10:04:44;22.30;1.00
5459;DHT22;2752;49.992;8.422;2023-06-14T10:07:14;22.50;1.00
5459;DHT22;2752;49.992;8.422;2023-06-14T10:09:42;22.70;1.00
5459;DHT22;2752;49.992;8.422;2023-06-14T10:12:14;22.60;1.00
5459;DHT22;2752;49.992;8.422;2023-06-14T10:14:48;22.50;1.00
5459;DHT22;2752;49.992;8.422;2023-06-14T10:17:22;22.70;1.00
5459;DHT22;2752;49.992;8.422;2023-06-14T10:19:58;22.80;1.00
5459;DHT22;2752;49.992;8.422;2023-06-14T10:22:33;22.90;1.00
5459;DHT22;2752;49.992;8.422;2023-06-14T10:25:02;22.80;1.00
5459;DHT22;2752;49.992;8.422;2023-06-14T10:27:37;22.80;1.00
5459;DHT22;2752;49.992;8.422;2023-06-14T10:30:08;23.00;1.00
5459;DHT22;2752;49.992;8.422;2023-06-14T10:32:34;23.10;1.00
5459;DHT22;2752;49.992;8.422;2023-06-14T10:35:04;23.10;1.00
5459;DHT22;2752;49.992;8.422;2023-06-14T10:37:31;23.10;1.00
5459;DHT22;2752;49.992;8.422;2023-06-14T10:39:58;22.70;1.00
5459;DHT22;2752;49.992;8.422;2023-06-14T10:42:28;22.40;1.00
5459;DHT22;2752;49.992;8.422;2023-06-14T10:44:55;22.30;1.00
5459;DHT22;2752;49.992;8.422;2023-06-14T10:47:28;22.50;1.00
5459;DHT22;2752;49.992;8.422;2023-06-14T10:49:57;22.80;1.00
5459;DHT22;2752;49.992;8.422;2023-06-14T10:52:26;23.00;1.00
5459;DHT22;2752;49.992;8.422;2023-06-14T10:55:09;23.10;1.00
5459;DHT22;2752;49.992;8.422;2023-06-14T10:57:39;23.10;1.00
5459;DHT22;2752;49.992;8.422;2023-06-14T11:00:07;23.30;1.00
5459;DHT22;2752;49.992;8.422;2023-06-14T11:05:49;23.70;1.00
5459;DHT22;2752;49.992;8.422;2023-06-14T11:11:22;24.00;1.00
5459;DHT22;2752;49.992;8.422;2023-06-14T11:13:49;24.10;1.00
5459;DHT22;2752;49.992;8.422;2023-06-14T11:16:18;23.80;1.00
5459;DHT22;2752;49.992;8.422;2023-06-14T11:18:45;23.70;1.00
5459;DHT22;2752;49.992;8.422;2023-06-14T11:21:17;23.60;1.00
5459;DHT22;2752;49.992;8.422;2023-06-14T11:23:49;23.50;1.00
5459;DHT22;2752;49.992;8.422;2023-06-14T11:26:16;23.30;1.00
5459;DHT22;2752;49.992;8.422;2023-06-14T11:28:43;23.20;1.00
5459;DHT22;2752;49.992;8.422;2023-06-14T11:31:09;23.30;1.00
5459;DHT22;2752;49.992;8.422;2023-06-14T11:33:36;23.70;1.00
5459;DHT22;2752;49.992;8.422;2023-06-14T11:36:04;24.10;1.00
5459;DHT22;2752;49.992;8.422;2023-06-14T11:38:36;24.40;1.00
5459;DHT22;2752;49.992;8.422;2023-06-14T11:41:03;24.50;1.00
5459;DHT22;2752;49.992;8.422;2023-06-14T11:43:30;24.80;1.00
5459;DHT22;2752;49.992;8.422;2023-06-14T11:45:59;24.70;1.00
5459;DHT22;2752;49.992;8.422;2023-06-14T11:48:36;24.70;1.00
5459;DHT22;2752;49.992;8.422;2023-06-14T11:51:03;24.80;1.00
5459;DHT22;2752;49.992;8.422;2023-06-14T11:53:29;25.00;1.00
5459;DHT22;2752;49.992;8.422;2023-06-14T11:55:57;25.10;1.00
5459;DHT22;2752;49.992;8.422;2023-06-14T11:58:25;25.70;1.00
5459;DHT22;2752;49.992;8.422;2023-06-14T12:00:52;25.80;1.00
5459;DHT22;2752;49.992;8.422;2023-06-14T12:03:22;25.90;1.00
5459;DHT22;2752;49.992;8.422;2023-06-14T12:05:50;25.60;1.00
5459;DHT22;2752;49.992;8.422;2023-06-14T12:08:16;25.50;1.00
5459;DHT22;2752;49.992;8.422;2023-06-14T12:10:43;25.10;1.00
5459;DHT22;2752;49.992;8.422;2023-06-14T12:13:12;24.80;1.00
5459;DHT22;2752;49.992;8.422;2023-06-14T12:15:38;24.60;1.00
5459;DHT22;2752;49.992;8.422;2023-06-14T12:18:06;24.50;1.00
5459;DHT22;2752;49.992;8.422;2023-06-14T12:20:33;24.60;1.00
5459;DHT22;2752;49.992;8.422;2023-06-14T12:23:03;25.00;1.00
5459;DHT22;2752;49.992;8.422;2023-06-14T12:25:32;25.30;1.00
5459;DHT22;2752;49.992;8.422;2023-06-14T12:28:03;25.10;1.00
5459;DHT22;2752;49.992;8.422;2023-06-14T12:30:32;24.90;1.00
5459;DHT22;2752;49.992;8.422;2023-06-14T12:32:59;24.60;1.00
5459;DHT22;2752;49.992;8.422;2023-06-14T12:35:25;24.60;1.00
5459;DHT22;2752;49.992;8.422;2023-06-14T12:37:52;24.80;1.00
5459;DHT22;2752;49.992;8.422;2023-06-14T12:40:19;24.70;1.00
5459;DHT22;2752;49.992;8.422;2023-06-14T12:42:47;24.60;1.00
5459;DHT22;2752;49.992;8.422;2023-06-14T12:45:14;24.60;1.00
5459;DHT22;2752;49.992;8.422;2023-06-14T12:47:42;24.80;1.00
5459;DHT22;2752;49.992;8.422;2023-06-14T12:50:09;24.70;1.00
5459;DHT22;2752;49.992;8.422;2023-06-14T12:52:36;24.50;1.00
5459;DHT22;2752;49.992;8.422;2023-06-14T12:55:03;24.50;1.00
5459;DHT22;2752;49.992;8.422;2023-06-14T12:57:30;24.60;1.00
5459;DHT22;2752;49.992;8.422;2023-06-14T12:59:57;25.20;1.00
5459;DHT22;2752;49.992;8.422;2023-06-14T13:02:23;25.30;1.00
5459;DHT22;2752;49.992;8.422;2023-06-14T13:04:52;25.40;1.00
5459;DHT22;2752;49.992;8.422;2023-06-14T13:07:19;25.30;1.00
5459;DHT22;2752;49.992;8.422;2023-06-14T13:09:45;25.10;1.00
5459;DHT22;2752;49.992;8.422;2023-06-14T13:12:12;24.90;1.00
5459;DHT22;2752;49.992;8.422;2023-06-14T13:14:39;24.80;1.00
5459;DHT22;2752;49.992;8.422;2023-06-14T13:17:08;24.80;1.00
5459;DHT22;2752;49.992;8.422;2023-06-14T13:19:35;24.80;1.00
5459;DHT22;2752;49.992;8.422;2023-06-14T13:22:03;24.90;1.00
5459;DHT22;2752;49.992;8.422;2023-06-14T13:24:30;24.90;1.00
5459;DHT22;2752;49.992;8.422;2023-06-14T13:26:57;24.80;1.00
5459;DHT22;2752;49.992;8.422;2023-06-14T13:29:24;25.00;1.00
5459;DHT22;2752;49.992;8.422;2023-06-14T13:31:51;25.20;1.00
5459;DHT22;2752;49.992;8.422;2023-06-14T13:34:18;25.30;1.00
5459;DHT22;2752;49.992;8.422;2023-06-14T13:36:45;25.40;1.00
5459;DHT22;2752;49.992;8.422;2023-06-14T13:39:14;25.70;1.00
5459;DHT22;2752;49.992;8.422;2023-06-14T13:41:40;26.00;1.00
5459;DHT22;2752;49.992;8.422;2023-06-14T13:44:07;26.00;1.00
5459;DHT22;2752;49.992;8.422;2023-06-14T13:46:36;25.70;1.00
5459;DHT22;2752;49.992;8.422;2023-06-14T13:49:03;25.80;1.00
5459;DHT22;2752;49.992;8.422;2023-06-14T13:51:30;26.20;1.00
5459;DHT22;2752;49.992;8.422;2023-06-14T13:53:58;26.60;1.00
5459;DHT22;2752;49.992;8.422;2023-06-14T13:56:26;27.10;1.00
5459;DHT22;2752;49.992;8.422;2023-06-14T13:58:53;27.20;1.00
5459;DHT22;2752;49.992;8.422;2023-06-14T14:01:20;27.20;1.00
5459;DHT22;2752;49.992;8.422;2023-06-14T14:03:48;26.70;1.00
5459;DHT22;2752;49.992;8.422;2023-06-14T14:06:15;26.30;1.00
5459;DHT22;2752;49.992;8.422;2023-06-14T14:08:42;25.80;1.00
5459;DHT22;2752;49.992;8.422;2023-06-14T14:11:09;25.70;1.00
5459;DHT22;2752;49.992;8.422;2023-06-14T14:13:37;25.60;1.00
5459;DHT22;2752;49.992;8.422;2023-06-14T14:16:04;25.30;1.00
5459;DHT22;2752;49.992;8.422;2023-06-14T14:18:31;25.00;1.00
5459;DHT22;2752;49.992;8.422;2023-06-14T14:20:58;24.90;1.00
5459;DHT22;2752;49.992;8.422;2023-06-14T14:23:26;25.10;1.00
5459;DHT22;2752;49.992;8.422;2023-06-14T14:25:53;25.40;1.00
5459;DHT22;2752;49.992;8.422;2023-06-14T14:28:19;25.70;1.00
5459;DHT22;2752;49.992;8.422;2023-06-14T14:30:48;26.10;1.00
5459;DHT22;2752;49.992;8.422;2023-06-14T14:33:14;26.40;1.00
5459;DHT22;2752;49.992;8.422;2023-06-14T14:35:42;26.30;1.00
5459;DHT22;2752;49.992;8.422;2023-06-14T14:38:11;26.40;1.00
5459;DHT22;2752;49.992;8.422;2023-06-14T14:40:38;26.30;1.00
5459;DHT22;2752;49.992;8.422;2023-06-14T14:43:05;25.90;1.00
5459;DHT22;2752;49.992;8.422;2023-06-14T14:45:32;25.60;1.00
5459;DHT22;2752;49.992;8.422;2023-06-14T14:48:00;25.40;1.00
5459;DHT22;2752;49.992;8.422;2023-06-14T14:50:27;25.30;1.00
5459;DHT22;2752;49.992;8.422;2023-06-14T14:52:54;25.40;1.00
5459;DHT22;2752;49.992;8.422;2023-06-14T14:55:20;25.80;1.00
5459;DHT22;2752;49.992;8.422;2023-06-14T14:57:47;26.20;1.00
5459;DHT22;2752;49.992;8.422;2023-06-14T15:00:14;26.40;1.00
5459;DHT22;2752;49.992;8.422;2023-06-14T15:02:41;26.70;1.00
5459;DHT22;2752;49.992;8.422;2023-06-14T15:05:09;26.50;1.00
5459;DHT22;2752;49.992;8.422;2023-06-14T15:07:36;26.30;1.00
5459;DHT22;2752;49.992;8.422;2023-06-14T15:10:06;26.00;1.00
5459;DHT22;2752;49.992;8.422;2023-06-14T15:12:33;25.80;1.00
5459;DHT22;2752;49.992;8.422;2023-06-14T15:15:00;25.50;1.00
5459;DHT22;2752;49.992;8.422;2023-06-14T15:17:27;25.20;1.00
5459;DHT22;2752;49.992;8.422;2023-06-14T15:19:54;25.20;1.00
5459;DHT22;2752;49.992;8.422;2023-06-14T15:22:22;25.10;1.00
5459;DHT22;2752;49.992;8.422;2023-06-14T15:24:48;24.80;1.00
5459;DHT22;2752;49.992;8.422;2023-06-14T15:27:15;24.60;1.00
5459;DHT22;2752;49.992;8.422;2023-06-14T15:29:42;24.40;1.00
5459;DHT22;2752;49.992;8.422;2023-06-14T15:32:09;24.70;1.00
5459;DHT22;2752;49.992;8.422;2023-06-14T15:34:37;25.10;1.00
5459;DHT22;2752;49.992;8.422;2023-06-14T15:37:05;25.60;1.00
5459;DHT22;2752;49.992;8.422;2023-06-14T15:39:33;25.80;1.00
5459;DHT22;2752;49.992;8.422;2023-06-14T15:42:00;26.20;1.00
5459;DHT22;2752;49.992;8.422;2023-06-14T15:44:27;26.30;1.00
5459;DHT22;2752;49.992;8.422;2023-06-14T15:46:53;26.50;1.00
5459;DHT22;2752;49.992;8.422;2023-06-14T15:49:20;26.60;1.00
5459;DHT22;2752;49.992;8.422;2023-06-14T15:51:47;26.70;1.00
5459;DHT22;2752;49.992;8.422;2023-06-14T15:54:14;26.70;1.00
5459;DHT22;2752;49.992;8.422;2023-06-14T15:56:42;26.80;1.00
5459;DHT22;2752;49.992;8.422;2023-06-14T15:59:08;27.00;1.00
5459;DHT22;2752;49.992;8.422;2023-06-14T16:01:35;27.30;1.00
5459;DHT22;2752;49.992;8.422;2023-06-14T16:04:02;27.40;1.00
5459;DHT22;2752;49.992;8.422;2023-06-14T16:06:29;27.60;1.00
5459;DHT22;2752;49.992;8.422;2023-06-14T16:08:56;27.50;1.00
5459;DHT22;2752;49.992;8.422;2023-06-14T16:11:23;27.50;1.00
5459;DHT22;2752;49.992;8.422;2023-06-14T16:13:51;27.40;1.00
5459;DHT22;2752;49.992;8.422;2023-06-14T16:16:17;27.40;1.00
5459;DHT22;2752;49.992;8.422;2023-06-14T16:18:46;27.50;1.00
5459;DHT22;2752;49.992;8.422;2023-06-14T16:21:12;27.70;1.00
5459;DHT22;2752;49.992;8.422;2023-06-14T16:23:39;28.10;1.00
5459;DHT22;2752;49.992;8.422;2023-06-14T16:26:10;28.40;1.00